sensor_id;sensor_type;location;lat;lon;timestamp;P1;durP1;ratioP1;P2;durP2;ratioP2
74777;SDS011;63298;53.164;8.610;2023-07-13T00:01:38;3.50;;;1.27;;
74777;SDS011;63298;53.164;8.610;2023-07-13T00:04:03;1.73;;;1.52;;
74777;SDS011;63298;53.164;8.610;2023-07-13T00:06:29;3.83;;;1.60;;
74777;SDS011;63298;53.164;8.610;2023-07-13T00:08:54;5.03;;;2.00;;
74777;SDS011;63298;53.164;8.610;2023-07-13T00:11:20;5.22;;;1.67;;
74777;SDS011;63298;53.164;8.610;2023-07-13T00:13:45;3.97;;;1.48;;
74777;SDS011;63298;53.164;8.610;2023-07-13T00:16:11;4.00;;;1.70;;
74777;SDS011;63298;53.164;8.610;2023-07-13T00:18:37;2.25;;;1.60;;
74777;SDS011;63298;53.164;8.610;2023-07-13T00:21:02;1.90;;;1.70;;
74777;SDS011;63298;53.164;8.610;2023-07-13T00:23:28;2.88;;;1.48;;
74777;SDS011;63298;53.164;8.610;2023-07-13T00:25:53;3.22;;;1.90;;
74777;SDS011;63298;53.164;8.610;2023-07-13T00:28:19;4.75;;;1.92;;
74777;SDS011;63298;53.164;8.610;2023-07-13T00:30:44;5.57;;;2.40;;
74777;SDS011;63298;53.164;8.610;2023-07-13T00:33:10;5.13;;;2.20;;
74777;SDS011;63298;53.164;8.610;2023-07-13T00:35:36;3.03;;;1.90;;
74777;SDS011;63298;53.164;8.610;2023-07-13T00:38:02;4.65;;;2.03;;
74777;SDS011;63298;53.164;8.610;2023-07-13T00:40:27;5.13;;;2.10;;
74777;SDS011;63298;53.164;8.610;2023-07-13T00:42:53;2.45;;;2.03;;
74777;SDS011;63298;53.164;8.610;2023-07-13T00:47:43;4.40;;;2.30;;
74777;SDS011;63298;53.164;8.610;2023-07-13T00:50:10;8.50;;;2.85;;
74777;SDS011;63298;53.164;8.610;2023-07-13T00:52:40;4.30;;;2.10;;
74777;SDS011;63298;53.164;8.610;2023-07-13T00:55:07;2.72;;;2.42;;
74777;SDS011;63298;53.164;8.610;2023-07-13T00:57:34;4.18;;;2.30;;
74777;SDS011;63298;53.164;8.610;2023-07-13T01:00:00;3.65;;;2.17;;
74777;SDS011;63298;53.164;8.610;2023-07-13T01:02:29;9.32;;;2.53;;
74777;SDS011;63298;53.164;8.610;2023-07-13T01:04:54;2.65;;;2.00;;
74777;SDS011;63298;53.164;8.610;2023-07-13T01:07:21;4.00;;;2.30;;
74777;SDS011;63298;53.164;8.610;2023-07-13T01:09:46;2.17;;;2.00;;
74777;SDS011;63298;53.164;8.610;2023-07-13T01:12:12;6.22;;;2.22;;
74777;SDS011;63298;53.164;8.610;2023-07-13T01:14:37;4.78;;;2.30;;
74777;SDS011;63298;53.164;8.610;2023-07-13T01:17:03;3.90;;;2.00;;
74777;SDS011;63298;53.164;8.610;2023-07-13T01:19:33;5.00;;;2.20;;
74777;SDS011;63298;53.164;8.610;2023-07-13T01:22:03;2.30;;;2.10;;
74777;SDS011;63298;53.164;8.610;2023-07-13T01:24:36;4.35;;;2.20;;
74777;SDS011;63298;53.164;8.610;2023-07-13T01:27:02;3.95;;;2.75;;
74777;SDS011;63298;53.164;8.610;2023-07-13T01:29:28;3.72;;;2.45;;
74777;SDS011;63298;53.164;8.610;2023-07-13T01:31:55;8.68;;;2.70;;
74777;SDS011;63298;53.164;8.610;2023-07-13T01:34:20;6.53;;;2.35;;
74777;SDS011;63298;53.164;8.610;2023-07-13T01:36:46;4.07;;;2.20;;
74777;SDS011;63298;53.164;8.610;2023-07-13T01:39:11;4.32;;;2.22;;
74777;SDS011;63298;53.164;8.610;2023-07-13T01:41:37;6.60;;;2.72;;
74777;SDS011;63298;53.164;8.610;2023-07-13T01:44:06;5.68;;;2.25;;
74777;SDS011;63298;53.164;8.610;2023-07-13T01:46:32;6.07;;;2.63;;
74777;SDS011;63298;53.164;8.610;2023-07-13T01:48:57;9.23;;;2.72;;
74777;SDS011;63298;53.164;8.610;2023-07-13T01:51:22;3.72;;;2.10;;
74777;SDS011;63298;53.164;8.610;2023-07-13T01:53:48;4.18;;;2.17;;
74777;SDS011;63298;53.164;8.610;2023-07-13T01:56:13;4.60;;;2.50;;
74777;SDS011;63298;53.164;8.610;2023-07-13T01:58:38;8.68;;;2.92;;
74777;SDS011;63298;53.164;8.610;2023-07-13T02:01:04;3.70;;;2.30;;
74777;SDS011;63298;53.164;8.610;2023-07-13T02:03:29;6.43;;;2.90;;
74777;SDS011;63298;53.164;8.610;2023-07-13T02:05:54;7.28;;;2.70;;
74777;SDS011;63298;53.164;8.610;2023-07-13T02:08:20;5.75;;;2.38;;
74777;SDS011;63298;53.164;8.610;2023-07-13T02:10:45;3.72;;;2.30;;
74777;SDS011;63298;53.164;8.610;2023-07-13T02:13:11;4.55;;;2.33;;
74777;SDS011;63298;53.164;8.610;2023-07-13T02:15:40;4.22;;;2.28;;
74777;SDS011;63298;53.164;8.610;2023-07-13T02:18:05;5.03;;;2.33;;
74777;SDS011;63298;53.164;8.610;2023-07-13T02:20:31;8.40;;;2.22;;
74777;SDS011;63298;53.164;8.610;2023-07-13T02:22:56;3.63;;;2.28;;
74777;SDS011;63298;53.164;8.610;2023-07-13T02:25:21;3.00;;;1.90;;
74777;SDS011;63298;53.164;8.610;2023-07-13T02:27:47;4.65;;;2.35;;
74777;SDS011;63298;53.164;8.610;2023-07-13T02:30:12;7.35;;;2.47;;
74777;SDS011;63298;53.164;8.610;2023-07-13T02:32:37;4.68;;;2.63;;
74777;SDS011;63298;53.164;8.610;2023-07-13T02:35:09;8.70;;;2.30;;
74777;SDS011;63298;53.164;8.610;2023-07-13T02:37:35;3.35;;;1.85;;
74777;SDS011;63298;53.164;8.610;2023-07-13T02:40:01;3.08;;;2.28;;
74777;SDS011;63298;53.164;8.610;2023-07-13T02:42:26;5.28;;;2.30;;
74777;SDS011;63298;53.164;8.610;2023-07-13T02:44:52;7.38;;;2.28;;
74777;SDS011;63298;53.164;8.610;2023-07-13T02:47:17;7.40;;;2.30;;
74777;SDS011;63298;53.164;8.610;2023-07-13T02:49:43;4.28;;;2.20;;
74777;SDS011;63298;53.164;8.610;2023-07-13T02:52:09;3.88;;;2.55;;
74777;SDS011;63298;53.164;8.610;2023-07-13T02:54:34;5.55;;;2.35;;
74777;SDS011;63298;53.164;8.610;2023-07-13T02:57:00;5.57;;;2.60;;
74777;SDS011;63298;53.164;8.610;2023-07-13T02:59:26;4.30;;;2.50;;
74777;SDS011;63298;53.164;8.610;2023-07-13T03:01:51;4.80;;;2.30;;
74777;SDS011;63298;53.164;8.610;2023-07-13T03:04:17;9.63;;;2.40;;
74777;SDS011;63298;53.164;8.610;2023-07-13T03:06:42;6.25;;;2.50;;
74777;SDS011;63298;53.164;8.610;2023-07-13T03:09:08;2.92;;;2.30;;
74777;SDS011;63298;53.164;8.610;2023-07-13T03:11:33;9.63;;;2.47;;
74777;SDS011;63298;53.164;8.610;2023-07-13T03:13:59;10.82;;;2.38;;
74777;SDS011;63298;53.164;8.610;2023-07-13T03:16:24;5.82;;;2.50;;
74777;SDS011;63298;53.164;8.610;2023-07-13T03:18:50;2.17;;;1.98;;
74777;SDS011;63298;53.164;8.610;2023-07-13T03:21:15;3.10;;;2.10;;
74777;SDS011;63298;53.164;8.610;2023-07-13T03:23:44;8.90;;;2.20;;
74777;SDS011;63298;53.164;8.610;2023-07-13T03:26:11;7.72;;;2.08;;
74777;SDS011;63298;53.164;8.610;2023-07-13T03:28:42;5.78;;;2.20;;
74777;SDS011;63298;53.164;8.610;2023-07-13T03:31:10;7.40;;;2.65;;
74777;SDS011;63298;53.164;8.610;2023-07-13T03:33:38;7.13;;;2.50;;
74777;SDS011;63298;53.164;8.610;2023-07-13T03:36:04;6.82;;;1.92;;
74777;SDS011;63298;53.164;8.610;2023-07-13T03:38:30;4.20;;;2.35;;
74777;SDS011;63298;53.164;8.610;2023-07-13T03:40:55;7.15;;;2.42;;
74777;SDS011;63298;53.164;8.610;2023-07-13T03:43:21;5.15;;;1.95;;
74777;SDS011;63298;53.164;8.610;2023-07-13T03:45:47;8.57;;;2.17;;
74777;SDS011;63298;53.164;8.610;2023-07-13T03:48:13;10.88;;;2.00;;
74777;SDS011;63298;53.164;8.610;2023-07-13T03:50:39;9.32;;;2.17;;
74777;SDS011;63298;53.164;8.610;2023-07-13T03:53:04;10.23;;;1.92;;
74777;SDS011;63298;53.164;8.610;2023-07-13T03:55:30;8.77;;;1.88;;
74777;SDS011;63298;53.164;8.610;2023-07-13T03:57:59;2.47;;;1.70;;
74777;SDS011;63298;53.164;8.610;2023-07-13T04:00:45;7.25;;;1.92;;
74777;SDS011;63298;53.164;8.610;2023-07-13T04:03:10;14.48;;;2.13;;
74777;SDS011;63298;53.164;8.610;2023-07-13T04:05:36;4.93;;;1.77;;
74777;SDS011;63298;53.164;8.610;2023-07-13T04:08:04;13.60;;;2.10;;
74777;SDS011;63298;53.164;8.610;2023-07-13T04:10:30;3.35;;;1.70;;
74777;SDS011;63298;53.164;8.610;2023-07-13T04:12:55;9.25;;;1.92;;
74777;SDS011;63298;53.164;8.610;2023-07-13T04:15:21;7.68;;;1.67;;
74777;SDS011;63298;53.164;8.610;2023-07-13T04:17:46;6.00;;;1.75;;
74777;SDS011;63298;53.164;8.610;2023-07-13T04:20:15;10.07;;;1.77;;
74777;SDS011;63298;53.164;8.610;2023-07-13T04:22:40;10.93;;;1.80;;
74777;SDS011;63298;53.164;8.610;2023-07-13T04:25:06;9.45;;;1.92;;
74777;SDS011;63298;53.164;8.610;2023-07-13T04:27:31;5.22;;;1.42;;
74777;SDS011;63298;53.164;8.610;2023-07-13T04:29:57;9.32;;;1.80;;
74777;SDS011;63298;53.164;8.610;2023-07-13T04:32:22;5.18;;;1.73;;
74777;SDS011;63298;53.164;8.610;2023-07-13T04:34:47;12.77;;;1.58;;
74777;SDS011;63298;53.164;8.610;2023-07-13T04:37:13;9.88;;;2.42;;
74777;SDS011;63298;53.164;8.610;2023-07-13T04:39:41;6.45;;;1.77;;
74777;SDS011;63298;53.164;8.610;2023-07-13T04:42:06;8.57;;;1.83;;
74777;SDS011;63298;53.164;8.610;2023-07-13T04:44:32;8.07;;;1.42;;
74777;SDS011;63298;53.164;8.610;2023-07-13T04:46:57;6.78;;;1.75;;
74777;SDS011;63298;53.164;8.610;2023-07-13T04:49:23;10.05;;;1.77;;
74777;SDS011;63298;53.164;8.610;2023-07-13T04:51:48;11.57;;;2.00;;
74777;SDS011;63298;53.164;8.610;2023-07-13T04:54:13;10.25;;;1.95;;
74777;SDS011;63298;53.164;8.610;2023-07-13T04:56:39;10.02;;;1.83;;
74777;SDS011;63298;53.164;8.610;2023-07-13T04:59:07;6.40;;;1.50;;
74777;SDS011;63298;53.164;8.610;2023-07-13T05:01:32;8.50;;;1.58;;
74777;SDS011;63298;53.164;8.610;2023-07-13T05:03:57;8.18;;;1.73;;
74777;SDS011;63298;53.164;8.610;2023-07-13T05:06:23;5.57;;;1.73;;
74777;SDS011;63298;53.164;8.610;2023-07-13T05:08:48;7.68;;;1.70;;
74777;SDS011;63298;53.164;8.610;2023-07-13T05:11:14;6.85;;;1.42;;
74777;SDS011;63298;53.164;8.610;2023-07-13T05:13:40;8.90;;;1.60;;
74777;SDS011;63298;53.164;8.610;2023-07-13T05:16:08;10.45;;;1.95;;
74777;SDS011;63298;53.164;8.610;2023-07-13T05:18:34;8.77;;;1.88;;
74777;SDS011;63298;53.164;8.610;2023-07-13T05:21:05;7.18;;;1.80;;
74777;SDS011;63298;53.164;8.610;2023-07-13T05:23:35;8.73;;;1.60;;
74777;SDS011;63298;53.164;8.610;2023-07-13T05:26:01;9.52;;;2.13;;
74777;SDS011;63298;53.164;8.610;2023-07-13T05:28:27;8.77;;;1.73;;
74777;SDS011;63298;53.164;8.610;2023-07-13T05:30:53;6.53;;;1.77;;
74777;SDS011;63298;53.164;8.610;2023-07-13T05:33:19;6.25;;;1.80;;
74777;SDS011;63298;53.164;8.610;2023-07-13T05:35:45;9.25;;;1.88;;
74777;SDS011;63298;53.164;8.610;2023-07-13T05:38:10;6.15;;;1.58;;
74777;SDS011;63298;53.164;8.610;2023-07-13T05:40:36;7.05;;;2.08;;
74777;SDS011;63298;53.164;8.610;2023-07-13T05:43:01;11.43;;;1.90;;
74777;SDS011;63298;53.164;8.610;2023-07-13T05:45:26;8.50;;;1.77;;
74777;SDS011;63298;53.164;8.610;2023-07-13T05:47:52;12.98;;;2.17;;
74777;SDS011;63298;53.164;8.610;2023-07-13T05:50:17;13.18;;;2.15;;
74777;SDS011;63298;53.164;8.610;2023-07-13T05:52:43;7.13;;;2.13;;
74777;SDS011;63298;53.164;8.610;2023-07-13T05:55:08;9.48;;;2.00;;
74777;SDS011;63298;53.164;8.610;2023-07-13T05:57:33;4.90;;;2.13;;
74777;SDS011;63298;53.164;8.610;2023-07-13T05:59:59;13.40;;;2.10;;
74777;SDS011;63298;53.164;8.610;2023-07-13T06:02:24;6.43;;;1.83;;
74777;SDS011;63298;53.164;8.610;2023-07-13T06:04:49;12.57;;;2.13;;
74777;SDS011;63298;53.164;8.610;2023-07-13T06:07:15;8.70;;;1.98;;
74777;SDS011;63298;53.164;8.610;2023-07-13T06:09:40;12.98;;;2.17;;
74777;SDS011;63298;53.164;8.610;2023-07-13T06:12:06;8.88;;;1.52;;
74777;SDS011;63298;53.164;8.610;2023-07-13T06:14:31;5.57;;;1.50;;
74777;SDS011;63298;53.164;8.610;2023-07-13T06:16:57;10.15;;;1.95;;
74777;SDS011;63298;53.164;8.610;2023-07-13T06:19:22;11.15;;;2.47;;
74777;SDS011;63298;53.164;8.610;2023-07-13T06:21:47;7.35;;;1.75;;
74777;SDS011;63298;53.164;8.610;2023-07-13T06:24:13;11.73;;;2.20;;
74777;SDS011;63298;53.164;8.610;2023-07-13T06:26:38;7.93;;;1.83;;
74777;SDS011;63298;53.164;8.610;2023-07-13T06:29:03;15.15;;;2.40;;
74777;SDS011;63298;53.164;8.610;2023-07-13T06:31:29;8.63;;;1.88;;
74777;SDS011;63298;53.164;8.610;2023-07-13T06:33:54;10.63;;;1.90;;
74777;SDS011;63298;53.164;8.610;2023-07-13T06:36:19;15.25;;;2.13;;
74777;SDS011;63298;53.164;8.610;2023-07-13T06:38:45;13.27;;;3.20;;
74777;SDS011;63298;53.164;8.610;2023-07-13T06:41:13;7.75;;;1.80;;
74777;SDS011;63298;53.164;8.610;2023-07-13T06:43:38;12.13;;;1.73;;
74777;SDS011;63298;53.164;8.610;2023-07-13T06:46:04;13.50;;;2.03;;
74777;SDS011;63298;53.164;8.610;2023-07-13T06:48:29;12.30;;;1.98;;
74777;SDS011;63298;53.164;8.610;2023-07-13T06:50:55;9.45;;;2.03;;
74777;SDS011;63298;53.164;8.610;2023-07-13T06:53:20;12.82;;;2.50;;
74777;SDS011;63298;53.164;8.610;2023-07-13T06:55:46;8.80;;;2.03;;
74777;SDS011;63298;53.164;8.610;2023-07-13T06:58:11;8.13;;;2.17;;
74777;SDS011;63298;53.164;8.610;2023-07-13T07:00:37;7.72;;;2.33;;
74777;SDS011;63298;53.164;8.610;2023-07-13T07:03:02;12.32;;;2.50;;
74777;SDS011;63298;53.164;8.610;2023-07-13T07:05:28;8.85;;;2.03;;
74777;SDS011;63298;53.164;8.610;2023-07-13T07:07:53;8.95;;;2.40;;
74777;SDS011;63298;53.164;8.610;2023-07-13T07:10:19;15.88;;;2.58;;
74777;SDS011;63298;53.164;8.610;2023-07-13T07:12:45;11.07;;;2.38;;
74777;SDS011;63298;53.164;8.610;2023-07-13T07:15:10;6.38;;;2.17;;
74777;SDS011;63298;53.164;8.610;2023-07-13T07:17:36;7.05;;;2.60;;
74777;SDS011;63298;53.164;8.610;2023-07-13T07:20:02;4.15;;;2.00;;
74777;SDS011;63298;53.164;8.610;2023-07-13T07:22:28;9.40;;;2.30;;
74777;SDS011;63298;53.164;8.610;2023-07-13T07:24:54;9.00;;;2.28;;
74777;SDS011;63298;53.164;8.610;2023-07-13T07:27:19;5.57;;;2.25;;
74777;SDS011;63298;53.164;8.610;2023-07-13T07:29:45;10.43;;;2.53;;
74777;SDS011;63298;53.164;8.610;2023-07-13T07:32:10;4.57;;;2.10;;
74777;SDS011;63298;53.164;8.610;2023-07-13T07:34:36;13.82;;;3.03;;
74777;SDS011;63298;53.164;8.610;2023-07-13T07:37:01;8.73;;;2.35;;
74777;SDS011;63298;53.164;8.610;2023-07-13T07:39:27;6.97;;;2.00;;
74777;SDS011;63298;53.164;8.610;2023-07-13T07:41:53;8.07;;;2.58;;
74777;SDS011;63298;53.164;8.610;2023-07-13T07:44:19;8.75;;;2.35;;
74777;SDS011;63298;53.164;8.610;2023-07-13T07:46:45;10.23;;;2.60;;
74777;SDS011;63298;53.164;8.610;2023-07-13T07:49:10;7.65;;;2.45;;
74777;SDS011;63298;53.164;8.610;2023-07-13T07:51:36;14.27;;;2.28;;
74777;SDS011;63298;53.164;8.610;2023-07-13T07:54:02;7.13;;;2.42;;
74777;SDS011;63298;53.164;8.610;2023-07-13T07:56:28;7.07;;;2.35;;
74777;SDS011;63298;53.164;8.610;2023-07-13T07:58:53;10.27;;;2.90;;
74777;SDS011;63298;53.164;8.610;2023-07-13T08:01:19;6.47;;;2.53;;
74777;SDS011;63298;53.164;8.610;2023-07-13T08:03:44;8.13;;;2.33;;
74777;SDS011;63298;53.164;8.610;2023-07-13T08:06:10;6.28;;;2.33;;
74777;SDS011;63298;53.164;8.610;2023-07-13T08:08:35;11.07;;;2.90;;
74777;SDS011;63298;53.164;8.610;2023-07-13T08:11:04;9.40;;;2.47;;
74777;SDS011;63298;53.164;8.610;2023-07-13T08:13:31;7.30;;;2.15;;
74777;SDS011;63298;53.164;8.610;2023-07-13T08:15:56;5.82;;;2.17;;
74777;SDS011;63298;53.164;8.610;2023-07-13T08:18:22;4.80;;;1.90;;
74777;SDS011;63298;53.164;8.610;2023-07-13T08:20:47;8.88;;;2.22;;
74777;SDS011;63298;53.164;8.610;2023-07-13T08:23:13;4.18;;;1.85;;
74777;SDS011;63298;53.164;8.610;2023-07-13T08:25:38;5.70;;;2.13;;
74777;SDS011;63298;53.164;8.610;2023-07-13T08:28:04;6.75;;;2.17;;
74777;SDS011;63298;53.164;8.610;2023-07-13T08:30:30;7.03;;;2.55;;
74777;SDS011;63298;53.164;8.610;2023-07-13T08:32:55;5.53;;;2.45;;
74777;SDS011;63298;53.164;8.610;2023-07-13T08:35:21;6.20;;;2.30;;
74777;SDS011;63298;53.164;8.610;2023-07-13T08:37:46;3.78;;;2.05;;
74777;SDS011;63298;53.164;8.610;2023-07-13T08:40:12;5.28;;;2.28;;
74777;SDS011;63298;53.164;8.610;2023-07-13T08:45:32;8.02;;;2.38;;
74777;SDS011;63298;53.164;8.610;2023-07-13T08:48:09;4.72;;;2.05;;
74777;SDS011;63298;53.164;8.610;2023-07-13T08:50:51;6.07;;;2.10;;
74777;SDS011;63298;53.164;8.610;2023-07-13T08:53:22;9.30;;;1.90;;
74777;SDS011;63298;53.164;8.610;2023-07-13T08:55:58;6.55;;;2.28;;
74777;SDS011;63298;53.164;8.610;2023-07-13T08:58:25;3.00;;;1.65;;
74777;SDS011;63298;53.164;8.610;2023-07-13T09:01:04;3.97;;;1.65;;
74777;SDS011;63298;53.164;8.610;2023-07-13T09:03:50;2.13;;;1.63;;
74777;SDS011;63298;53.164;8.610;2023-07-13T09:06:55;4.22;;;1.80;;
74777;SDS011;63298;53.164;8.610;2023-07-13T09:12:19;7.75;;;2.45;;
74777;SDS011;63298;53.164;8.610;2023-07-13T09:15:05;7.30;;;1.60;;
74777;SDS011;63298;53.164;8.610;2023-07-13T09:17:48;4.60;;;1.77;;
74777;SDS011;63298;53.164;8.610;2023-07-13T09:20:26;7.40;;;2.22;;
74777;SDS011;63298;53.164;8.610;2023-07-13T09:22:53;7.47;;;2.17;;
74777;SDS011;63298;53.164;8.610;2023-07-13T09:25:29;4.65;;;1.48;;
74777;SDS011;63298;53.164;8.610;2023-07-13T09:28:00;3.10;;;1.60;;
74777;SDS011;63298;53.164;8.610;2023-07-13T09:30:52;5.32;;;1.98;;
74777;SDS011;63298;53.164;8.610;2023-07-13T09:33:39;5.03;;;1.40;;
74777;SDS011;63298;53.164;8.610;2023-07-13T09:36:27;1.63;;;1.38;;
74777;SDS011;63298;53.164;8.610;2023-07-13T09:39:15;8.32;;;2.03;;
74777;SDS011;63298;53.164;8.610;2023-07-13T09:47:29;8.80;;;1.60;;
74777;SDS011;63298;53.164;8.610;2023-07-13T09:49:57;3.15;;;1.50;;
74777;SDS011;63298;53.164;8.610;2023-07-13T09:52:39;8.88;;;1.70;;
74777;SDS011;63298;53.164;8.610;2023-07-13T09:55:24;4.03;;;1.80;;
74777;SDS011;63298;53.164;8.610;2023-07-13T09:58:10;2.65;;;1.33;;
74777;SDS011;63298;53.164;8.610;2023-07-13T10:00:38;3.28;;;1.67;;
74777;SDS011;63298;53.164;8.610;2023-07-13T10:03:05;3.20;;;1.17;;
74777;SDS011;63298;53.164;8.610;2023-07-13T10:05:47;6.43;;;2.08;;
74777;SDS011;63298;53.164;8.610;2023-07-13T10:08:18;4.07;;;1.55;;
74777;SDS011;63298;53.164;8.610;2023-07-13T10:10:57;4.70;;;1.33;;
74777;SDS011;63298;53.164;8.610;2023-07-13T10:13:35;2.90;;;1.48;;
74777;SDS011;63298;53.164;8.610;2023-07-13T10:16:02;4.93;;;1.35;;
74777;SDS011;63298;53.164;8.610;2023-07-13T10:18:31;3.92;;;1.55;;
74777;SDS011;63298;53.164;8.610;2023-07-13T10:21:14;3.75;;;1.63;;
74777;SDS011;63298;53.164;8.610;2023-07-13T10:23:46;4.53;;;1.58;;
74777;SDS011;63298;53.164;8.610;2023-07-13T10:26:21;2.72;;;1.33;;
74777;SDS011;63298;53.164;8.610;2023-07-13T10:28:52;6.22;;;1.38;;
74777;SDS011;63298;53.164;8.610;2023-07-13T10:31:21;4.80;;;1.38;;
74777;SDS011;63298;53.164;8.610;2023-07-13T10:33:47;5.43;;;1.60;;
74777;SDS011;63298;53.164;8.610;2023-07-13T10:36:15;3.05;;;1.08;;
74777;SDS011;63298;53.164;8.610;2023-07-13T10:38:48;4.68;;;1.00;;
74777;SDS011;63298;53.164;8.610;2023-07-13T10:44:02;3.38;;;1.10;;
74777;SDS011;63298;53.164;8.610;2023-07-13T10:46:29;1.90;;;1.10;;
74777;SDS011;63298;53.164;8.610;2023-07-13T10:48:58;2.67;;;0.90;;
74777;SDS011;63298;53.164;8.610;2023-07-13T10:51:30;5.07;;;1.10;;
74777;SDS011;63298;53.164;8.610;2023-07-13T10:54:31;3.97;;;1.30;;
74777;SDS011;63298;53.164;8.610;2023-07-13T10:57:05;2.22;;;1.20;;
74777;SDS011;63298;53.164;8.610;2023-07-13T10:59:32;4.20;;;1.40;;
74777;SDS011;63298;53.164;8.610;2023-07-13T11:01:58;1.40;;;1.30;;
74777;SDS011;63298;53.164;8.610;2023-07-13T11:04:47;2.75;;;1.10;;
74777;SDS011;63298;53.164;8.610;2023-07-13T11:13:39;3.38;;;1.40;;
74777;SDS011;63298;53.164;8.610;2023-07-13T11:18:52;2.20;;;1.45;;
74777;SDS011;63298;53.164;8.610;2023-07-13T11:22:24;3.65;;;1.55;;
74777;SDS011;63298;53.164;8.610;2023-07-13T11:24:28;3.40;;;1.52;;
74777;SDS011;63298;53.164;8.610;2023-07-13T11:26:55;2.90;;;1.75;;
74777;SDS011;63298;53.164;8.610;2023-07-13T11:31:53;3.80;;;1.00;;
74777;SDS011;63298;53.164;8.610;2023-07-13T11:34:36;3.83;;;1.13;;
74777;SDS011;63298;53.164;8.610;2023-07-13T11:37:07;0.80;;;0.75;;
74777;SDS011;63298;53.164;8.610;2023-07-13T11:39:39;1.52;;;1.10;;
74777;SDS011;63298;53.164;8.610;2023-07-13T11:42:12;5.03;;;0.80;;
74777;SDS011;63298;53.164;8.610;2023-07-13T11:44:46;1.17;;;1.00;;
74777;SDS011;63298;53.164;8.610;2023-07-13T11:47:18;2.30;;;1.10;;
74777;SDS011;63298;53.164;8.610;2023-07-13T11:49:49;1.27;;;0.80;;
74777;SDS011;63298;53.164;8.610;2023-07-13T11:52:21;1.27;;;0.90;;
74777;SDS011;63298;53.164;8.610;2023-07-13T11:54:53;4.93;;;0.98;;
74777;SDS011;63298;53.164;8.610;2023-07-13T11:57:33;3.30;;;1.17;;
74777;SDS011;63298;53.164;8.610;2023-07-13T12:00:15;0.75;;;0.75;;
74777;SDS011;63298;53.164;8.610;2023-07-13T12:02:44;0.95;;;0.90;;
74777;SDS011;63298;53.164;8.610;2023-07-13T12:05:16;1.15;;;0.90;;
74777;SDS011;63298;53.164;8.610;2023-07-13T12:07:43;2.58;;;1.00;;
74777;SDS011;63298;53.164;8.610;2023-07-13T12:10:25;2.67;;;1.13;;
74777;SDS011;63298;53.164;8.610;2023-07-13T12:12:56;1.73;;;1.27;;
74777;SDS011;63298;53.164;8.610;2023-07-13T12:15:35;2.30;;;1.20;;
74777;SDS011;63298;53.164;8.610;2023-07-13T12:18:09;4.05;;;1.27;;
74777;SDS011;63298;53.164;8.610;2023-07-13T12:20:38;1.10;;;1.10;;
74777;SDS011;63298;53.164;8.610;2023-07-13T12:26:06;1.25;;;1.00;;
74777;SDS011;63298;53.164;8.610;2023-07-13T12:31:02;2.22;;;1.08;;
74777;SDS011;63298;53.164;8.610;2023-07-13T12:33:30;1.50;;;1.00;;
74777;SDS011;63298;53.164;8.610;2023-07-13T12:35:56;1.05;;;0.98;;
74777;SDS011;63298;53.164;8.610;2023-07-13T12:38:25;3.83;;;0.90;;
74777;SDS011;63298;53.164;8.610;2023-07-13T12:40:51;1.08;;;0.90;;
74777;SDS011;63298;53.164;8.610;2023-07-13T12:43:17;1.13;;;1.05;;
74777;SDS011;63298;53.164;8.610;2023-07-13T12:45:56;1.15;;;0.82;;
74777;SDS011;63298;53.164;8.610;2023-07-13T12:48:29;1.05;;;1.05;;
74777;SDS011;63298;53.164;8.610;2023-07-13T12:51:02;0.88;;;0.80;;
74777;SDS011;63298;53.164;8.610;2023-07-13T12:53:29;1.83;;;1.20;;
74777;SDS011;63298;53.164;8.610;2023-07-13T12:55:57;1.20;;;1.10;;
74777;SDS011;63298;53.164;8.610;2023-07-13T12:58:32;1.75;;;1.10;;
74777;SDS011;63298;53.164;8.610;2023-07-13T13:01:02;1.27;;;1.02;;
74777;SDS011;63298;53.164;8.610;2023-07-13T13:05:58;1.42;;;1.30;;
74777;SDS011;63298;53.164;8.610;2023-07-13T13:08:24;2.38;;;1.50;;
74777;SDS011;63298;53.164;8.610;2023-07-13T13:10:49;1.45;;;1.20;;
74777;SDS011;63298;53.164;8.610;2023-07-13T13:13:15;1.35;;;1.13;;
74777;SDS011;63298;53.164;8.610;2023-07-13T13:15:40;1.58;;;1.00;;
74777;SDS011;63298;53.164;8.610;2023-07-13T13:18:14;5.03;;;1.58;;
74777;SDS011;63298;53.164;8.610;2023-07-13T13:20:41;2.28;;;1.25;;
74777;SDS011;63298;53.164;8.610;2023-07-13T13:23:10;2.42;;;1.25;;
74777;SDS011;63298;53.164;8.610;2023-07-13T13:25:38;3.50;;;1.40;;
74777;SDS011;63298;53.164;8.610;2023-07-13T13:28:03;3.42;;;1.35;;
74777;SDS011;63298;53.164;8.610;2023-07-13T13:30:30;1.25;;;1.10;;
74777;SDS011;63298;53.164;8.610;2023-07-13T13:32:55;1.60;;;1.50;;
74777;SDS011;63298;53.164;8.610;2023-07-13T13:35:21;1.45;;;1.35;;
74777;SDS011;63298;53.164;8.610;2023-07-13T13:37:47;1.98;;;1.20;;
74777;SDS011;63298;53.164;8.610;2023-07-13T13:40:21;1.23;;;1.17;;
74777;SDS011;63298;53.164;8.610;2023-07-13T13:42:47;1.38;;;1.38;;
74777;SDS011;63298;53.164;8.610;2023-07-13T13:45:14;2.85;;;1.30;;
74777;SDS011;63298;53.164;8.610;2023-07-13T13:47:39;2.00;;;1.25;;
74777;SDS011;63298;53.164;8.610;2023-07-13T13:52:38;1.77;;;1.40;;
74777;SDS011;63298;53.164;8.610;2023-07-13T13:55:10;1.67;;;1.58;;
74777;SDS011;63298;53.164;8.610;2023-07-13T13:57:40;3.13;;;1.42;;
74777;SDS011;63298;53.164;8.610;2023-07-13T14:00:05;1.15;;;1.10;;
74777;SDS011;63298;53.164;8.610;2023-07-13T14:02:33;1.17;;;1.15;;
74777;SDS011;63298;53.164;8.610;2023-07-13T14:04:59;1.15;;;1.10;;
74777;SDS011;63298;53.164;8.610;2023-07-13T14:07:26;1.85;;;1.30;;
74777;SDS011;63298;53.164;8.610;2023-07-13T14:09:56;3.33;;;1.20;;
74777;SDS011;63298;53.164;8.610;2023-07-13T14:12:27;1.40;;;1.30;;
74777;SDS011;63298;53.164;8.610;2023-07-13T14:14:54;2.00;;;1.33;;
74777;SDS011;63298;53.164;8.610;2023-07-13T14:17:21;2.25;;;1.33;;
74777;SDS011;63298;53.164;8.610;2023-07-13T14:19:50;2.35;;;1.60;;
74777;SDS011;63298;53.164;8.610;2023-07-13T14:22:17;2.35;;;1.05;;
74777;SDS011;63298;53.164;8.610;2023-07-13T14:24:43;1.02;;;0.93;;
74777;SDS011;63298;53.164;8.610;2023-07-13T14:27:10;1.48;;;1.10;;
74777;SDS011;63298;53.164;8.610;2023-07-13T14:29:37;2.75;;;1.17;;
74777;SDS011;63298;53.164;8.610;2023-07-13T14:32:02;2.40;;;1.38;;
74777;SDS011;63298;53.164;8.610;2023-07-13T14:34:28;0.98;;;0.98;;
74777;SDS011;63298;53.164;8.610;2023-07-13T14:36:53;2.78;;;1.25;;
74777;SDS011;63298;53.164;8.610;2023-07-13T14:39:22;4.15;;;1.25;;
74777;SDS011;63298;53.164;8.610;2023-07-13T14:41:50;4.88;;;1.45;;
74777;SDS011;63298;53.164;8.610;2023-07-13T14:44:24;3.22;;;1.40;;
74777;SDS011;63298;53.164;8.610;2023-07-13T14:46:51;4.47;;;1.40;;
74777;SDS011;63298;53.164;8.610;2023-07-13T14:49:30;4.28;;;2.20;;
74777;SDS011;63298;53.164;8.610;2023-07-13T14:52:05;7.05;;;1.90;;
74777;SDS011;63298;53.164;8.610;2023-07-13T14:54:39;4.10;;;1.40;;
74777;SDS011;63298;53.164;8.610;2023-07-13T14:57:04;1.88;;;0.85;;
74777;SDS011;63298;53.164;8.610;2023-07-13T14:59:30;2.35;;;0.90;;
74777;SDS011;63298;53.164;8.610;2023-07-13T15:01:55;2.22;;;1.08;;
74777;SDS011;63298;53.164;8.610;2023-07-13T15:04:21;2.65;;;0.90;;
74777;SDS011;63298;53.164;8.610;2023-07-13T15:06:53;0.55;;;0.55;;
74777;SDS011;63298;53.164;8.610;2023-07-13T15:09:22;2.00;;;0.90;;
74777;SDS011;63298;53.164;8.610;2023-07-13T15:11:50;0.85;;;0.60;;
74777;SDS011;63298;53.164;8.610;2023-07-13T15:14:16;1.55;;;0.80;;
74777;SDS011;63298;53.164;8.610;2023-07-13T15:16:41;1.13;;;0.90;;
74777;SDS011;63298;53.164;8.610;2023-07-13T15:19:08;0.82;;;0.70;;
74777;SDS011;63298;53.164;8.610;2023-07-13T15:21:35;1.30;;;0.60;;
74777;SDS011;63298;53.164;8.610;2023-07-13T15:24:00;1.10;;;0.63;;
74777;SDS011;63298;53.164;8.610;2023-07-13T15:26:26;0.32;;;0.32;;
74777;SDS011;63298;53.164;8.610;2023-07-13T15:28:51;0.40;;;0.40;;
74777;SDS011;63298;53.164;8.610;2023-07-13T15:31:18;0.60;;;0.40;;